Time;durP1;ratioP1;P1;durP2;ratioP2;P2;SDS_P1;SDS_P2;PMS_P1;PMS_P2;Temp;Humidity;BMP_temperature;BMP_pressure;BME280_temperature;BME280_humidity;BME280_pressure;Samples;Min_cycle;Max_cycle;Signal;HPM_P1;HPM_P2
2022/06/08 00:15:53;;;;;;;1.17;1.00;;;14.90;99.90;;;;;;5098252;28;20713;-79
2022/06/08 00:25:33;;;;;;;1.08;0.80;;;14.90;99.90;;;;;;5080594;28;20218;-78
2022/06/08 00:28:09;;;;;;;0.70;0.70;;;14.90;99.90;;;;;;5102163;28;20236;-79
2022/06/08 00:30:43;;;;;;;0.70;0.70;;;14.80;99.90;;;;;;5107810;28;20292;-78
2022/06/08 00:41:54;;;;;;;0.80;0.80;;;14.90;99.90;;;;;;5096950;28;20212;-78
2022/06/08 01:18:47;;;;;;;0.63;0.63;;;14.70;99.90;;;;;;5093553;22;20234;-82
2022/06/08 01:21:46;;;;;;;0.88;0.88;;;14.70;99.90;;;;;;5057472;28;20202;-84
2022/06/08 01:24:13;;;;;;;0.82;0.80;;;14.70;99.90;;;;;;5057726;28;20233;-82
2022/06/08 01:26:45;;;;;;;0.80;0.80;;;14.60;99.90;;;;;;5065310;28;20683;-79
2022/06/08 01:29:17;;;;;;;0.80;0.80;;;14.60;99.90;;;;;;5083972;28;20217;-78
2022/06/08 01:31:49;;;;;;;0.95;0.95;;;14.60;99.90;;;;;;5086433;28;20205;-77
2022/06/08 01:34:22;;;;;;;0.90;0.90;;;14.60;99.90;;;;;;5091564;28;20911;-78
2022/06/08 01:37:13;;;;;;;0.80;0.80;;;14.60;99.90;;;;;;5086259;28;20194;-81
2022/06/08 01:39:58;;;;;;;0.80;0.80;;;14.60;99.90;;;;;;5085203;28;20224;-78
2022/06/08 01:42:50;;;;;;;1.13;0.90;;;14.60;99.90;;;;;;5085616;28;20215;-80
2022/06/08 01:45:30;;;;;;;0.80;0.80;;;14.60;99.90;;;;;;5085712;28;20222;-79
2022/06/08 01:48:19;;;;;;;0.77;0.77;;;14.60;99.90;;;;;;5085540;28;20231;-80
2022/06/08 01:51:00;;;;;;;0.90;0.90;;;14.60;99.90;;;;;;5085288;28;20220;-83
2022/06/08 01:53:42;;;;;;;0.75;0.73;;;14.50;99.90;;;;;;5084394;28;20217;-76
2022/06/08 01:56:16;;;;;;;0.70;0.70;;;14.50;99.90;;;;;;5081321;28;20193;-78
2022/06/08 01:58:52;;;;;;;0.80;0.80;;;14.50;99.90;;;;;;5078820;28;20232;-78
2022/06/08 02:01:24;;;;;;;0.77;0.77;;;14.40;99.90;;;;;;5084639;28;20194;-77
2022/06/08 02:03:58;;;;;;;0.73;0.73;;;14.40;99.90;;;;;;5085134;28;20553;-78
2022/06/08 02:06:33;;;;;;;0.80;0.80;;;14.40;99.90;;;;;;5085204;28;20193;-81
2022/06/08 02:09:05;;;;;;;1.75;0.80;;;14.30;99.90;;;;;;5083077;28;20224;-80
2022/06/08 02:11:39;;;;;;;0.90;0.90;;;14.30;99.90;;;;;;5087342;28;20213;-78
2022/06/08 02:14:10;;;;;;;0.85;0.80;;;14.30;99.90;;;;;;5084257;28;20225;-76
2022/06/08 02:16:42;;;;;;;0.93;0.93;;;14.30;99.90;;;;;;5083440;28;20204;-79
2022/06/08 02:19:13;;;;;;;0.80;0.80;;;14.30;99.90;;;;;;5086481;28;20695;-81
2022/06/08 02:21:47;;;;;;;1.05;1.05;;;14.30;99.90;;;;;;5082970;28;20197;-80
2022/06/08 02:24:21;;;;;;;0.85;0.85;;;14.30;99.90;;;;;;5081160;28;20242;-78
2022/06/08 02:26:54;;;;;;;0.93;0.93;;;14.30;99.90;;;;;;5082196;28;20212;-79
2022/06/08 02:29:24;;;;;;;0.90;0.90;;;14.30;99.90;;;;;;5088853;28;20351;-79
2022/06/08 02:31:56;;;;;;;1.50;0.70;;;14.30;99.90;;;;;;5082436;28;20569;-77
2022/06/08 02:34:28;;;;;;;1.40;0.70;;;14.30;99.90;;;;;;5087463;28;20218;-79
2022/06/08 02:37:00;;;;;;;0.82;0.82;;;14.30;99.90;;;;;;5082324;28;20676;-77
2022/06/08 02:39:33;;;;;;;1.05;0.90;;;14.30;99.90;;;;;;5082082;28;20511;-78
2022/06/08 02:42:07;;;;;;;0.70;0.70;;;14.30;99.90;;;;;;5083002;28;20198;-81
2022/06/08 02:44:36;;;;;;;1.85;0.90;;;14.30;99.90;;;;;;5086801;28;20639;-81
2022/06/08 02:47:07;;;;;;;0.70;0.70;;;14.30;99.90;;;;;;5084355;28;20193;-81
2022/06/08 02:49:35;;;;;;;0.75;0.75;;;14.30;99.90;;;;;;5082216;28;20400;-82
2022/06/08 02:52:05;;;;;;;0.90;0.90;;;14.30;99.90;;;;;;5080921;28;20287;-77
2022/06/08 02:54:34;;;;;;;0.77;0.77;;;14.30;99.90;;;;;;5082982;28;20225;-77
2022/06/08 02:57:15;;;;;;;0.73;0.73;;;14.20;99.90;;;;;;5080788;28;20629;-79
2022/06/08 02:59:50;;;;;;;0.52;0.52;;;14.20;99.90;;;;;;5083755;28;20702;-78
2022/06/08 03:02:22;;;;;;;0.80;0.80;;;14.20;99.90;;;;;;5083054;28;20209;-79
2022/06/08 03:04:55;;;;;;;0.77;0.77;;;14.20;99.90;;;;;;5085990;28;20707;-78
2022/06/08 03:07:26;;;;;;;0.93;0.93;;;14.10;99.90;;;;;;5085377;28;20307;-80
2022/06/08 03:09:57;;;;;;;0.70;0.70;;;14.10;99.90;;;;;;5086115;28;20645;-81
2022/06/08 03:12:28;;;;;;;0.98;0.98;;;14.10;99.90;;;;;;5086785;28;20630;-78
2022/06/08 03:14:56;;;;;;;0.80;0.80;;;14.10;99.90;;;;;;5082019;28;20225;-77
2022/06/08 03:17:28;;;;;;;0.82;0.82;;;14.00;99.90;;;;;;5084069;28;20221;-81
2022/06/08 03:19:55;;;;;;;0.80;0.80;;;14.10;99.90;;;;;;5086844;28;20241;-78
2022/06/08 03:22:22;;;;;;;0.80;0.70;;;14.10;99.90;;;;;;5081424;28;20233;-77
2022/06/08 03:24:49;;;;;;;0.80;0.80;;;14.00;99.90;;;;;;5082826;28;20545;-79
2022/06/08 03:27:18;;;;;;;0.70;0.70;;;14.00;99.90;;;;;;5083297;28;20226;-78
2022/06/08 03:29:45;;;;;;;1.40;0.82;;;14.00;99.90;;;;;;5081485;28;20220;-79
2022/06/08 03:32:12;;;;;;;0.82;0.82;;;13.90;99.90;;;;;;5079146;28;20213;-77
2022/06/08 03:34:40;;;;;;;0.70;0.70;;;13.90;99.90;;;;;;5078839;28;20221;-79
2022/06/08 03:37:09;;;;;;;0.70;0.70;;;13.90;99.90;;;;;;5080315;28;20201;-79
2022/06/08 03:39:36;;;;;;;0.60;0.60;;;13.90;99.90;;;;;;5081457;28;20278;-76
2022/06/08 03:42:03;;;;;;;0.70;0.70;;;13.90;99.90;;;;;;5082340;28;20205;-78
2022/06/08 03:44:32;;;;;;;0.90;0.90;;;13.90;99.90;;;;;;5083011;28;20220;-78
2022/06/08 03:47:09;;;;;;;0.80;0.80;;;13.90;99.90;;;;;;5079424;28;20205;-79
2022/06/08 03:49:37;;;;;;;0.80;0.80;;;13.90;99.90;;;;;;5079013;28;20221;-80
2022/06/08 03:52:08;;;;;;;0.90;0.90;;;13.90;99.90;;;;;;5082092;28;20204;-77
2022/06/08 03:54:39;;;;;;;1.13;1.05;;;13.80;99.90;;;;;;5084159;28;20228;-78
2022/06/08 03:57:08;;;;;;;0.90;0.90;;;13.80;99.90;;;;;;5080437;28;20206;-78
2022/06/08 03:59:40;;;;;;;0.80;0.80;;;13.80;99.90;;;;;;5084012;28;20241;-79
2022/06/08 04:02:09;;;;;;;0.98;0.82;;;13.80;99.90;;;;;;5083624;28;21037;-77
2022/06/08 04:04:36;;;;;;;0.90;0.90;;;13.80;99.90;;;;;;5084180;28;20248;-80
2022/06/08 04:07:04;;;;;;;0.80;0.80;;;13.80;99.90;;;;;;5082031;28;20198;-78
2022/06/08 04:09:31;;;;;;;0.90;0.90;;;13.90;99.90;;;;;;5079688;28;20236;-79
2022/06/08 04:11:59;;;;;;;0.98;0.98;;;14.00;99.90;;;;;;5083220;28;20228;-83
2022/06/08 04:14:27;;;;;;;1.50;1.20;;;14.00;99.90;;;;;;5082932;28;20704;-79
2022/06/08 04:16:55;;;;;;;0.90;0.85;;;14.10;99.90;;;;;;5081360;28;20197;-81
2022/06/08 04:19:22;;;;;;;0.95;0.70;;;14.10;99.90;;;;;;5080864;28;20213;-78
2022/06/08 04:21:50;;;;;;;0.80;0.80;;;14.20;99.90;;;;;;5083157;28;20197;-80
2022/06/08 04:24:19;;;;;;;0.90;0.90;;;14.40;99.90;;;;;;5084013;28;20221;-80
2022/06/08 04:26:46;;;;;;;0.85;0.85;;;14.60;99.90;;;;;;5082927;28;20267;-82
2022/06/08 04:29:14;;;;;;;1.52;0.70;;;14.70;99.90;;;;;;5080082;28;20310;-80
2022/06/08 04:31:41;;;;;;;0.68;0.68;;;14.70;99.90;;;;;;5081855;28;20200;-79
2022/06/08 04:34:11;;;;;;;0.98;0.98;;;14.80;99.90;;;;;;5083583;28;20221;-77
2022/06/08 04:36:39;;;;;;;0.90;0.90;;;14.90;99.90;;;;;;5081270;28;20250;-80
2022/06/08 04:39:08;;;;;;;0.95;0.93;;;15.00;99.90;;;;;;5083544;28;20809;-80
2022/06/08 04:41:36;;;;;;;1.00;0.80;;;15.10;99.90;;;;;;5081541;28;20204;-79
2022/06/08 04:44:04;;;;;;;0.80;0.80;;;15.10;99.90;;;;;;5078215;28;20241;-79
2022/06/08 04:46:31;;;;;;;0.90;0.90;;;15.10;99.90;;;;;;5082232;28;20193;-80
2022/06/08 04:48:59;;;;;;;0.90;0.90;;;15.20;99.90;;;;;;5082157;28;20622;-78
2022/06/08 04:51:27;;;;;;;1.13;1.13;;;15.10;99.90;;;;;;5082604;28;20699;-81
2022/06/08 04:53:54;;;;;;;1.00;1.00;;;15.20;99.90;;;;;;5077456;28;20231;-79
2022/06/08 04:56:21;;;;;;;1.05;1.05;;;15.20;99.90;;;;;;5080527;28;20209;-80
2022/06/08 04:58:49;;;;;;;3.00;1.05;;;15.30;99.90;;;;;;5081104;28;20228;-78
2022/06/08 05:01:16;;;;;;;1.95;0.90;;;15.30;99.90;;;;;;5082771;28;20201;-79
2022/06/08 05:03:43;;;;;;;1.25;1.00;;;15.30;99.90;;;;;;5082340;28;20671;-80
2022/06/08 05:06:10;;;;;;;0.80;0.80;;;15.40;99.90;;;;;;5081765;28;20690;-79
2022/06/08 05:08:40;;;;;;;0.90;0.90;;;15.40;99.90;;;;;;5096122;28;20470;-80
2022/06/08 05:11:08;;;;;;;1.30;1.10;;;15.40;99.90;;;;;;5085681;28;20636;-81
2022/06/08 05:13:36;;;;;;;1.23;1.10;;;15.40;99.90;;;;;;5080679;28;20228;-79
2022/06/08 05:16:04;;;;;;;1.38;1.00;;;15.50;99.90;;;;;;5082623;28;20193;-82
2022/06/08 05:18:31;;;;;;;2.42;1.15;;;15.40;99.90;;;;;;5084436;28;21590;-82
2022/06/08 05:20:58;;;;;;;1.05;1.00;;;15.30;99.90;;;;;;5083941;28;20194;-79
2022/06/08 05:23:28;;;;;;;1.30;1.17;;;15.40;99.90;;;;;;5079839;28;20694;-79
2022/06/08 05:25:56;;;;;;;1.00;1.00;;;15.50;99.90;;;;;;5084081;28;20213;-79
2022/06/08 05:28:24;;;;;;;1.25;1.15;;;15.60;99.90;;;;;;5083927;28;20278;-78
2022/06/08 05:30:53;;;;;;;1.63;1.13;;;15.70;99.90;;;;;;5080947;28;20649;-78
2022/06/08 05:33:21;;;;;;;1.50;1.00;;;15.80;99.90;;;;;;5084882;28;20198;-84
2022/06/08 05:35:48;;;;;;;1.08;1.00;;;15.90;99.90;;;;;;5084885;28;20217;-81
2022/06/08 05:38:15;;;;;;;1.10;1.00;;;16.00;99.90;;;;;;5081555;28;20243;-78
2022/06/08 05:40:42;;;;;;;2.17;1.10;;;16.10;99.90;;;;;;5077248;28;20252;-79
2022/06/08 05:43:13;;;;;;;1.15;1.15;;;16.20;99.90;;;;;;5081622;28;20213;-81
2022/06/08 05:45:41;;;;;;;0.80;0.80;;;16.20;99.90;;;;;;5081767;28;20221;-77
2022/06/08 05:48:09;;;;;;;2.20;1.48;;;16.20;99.90;;;;;;5086457;28;20574;-83
2022/06/08 05:50:39;;;;;;;1.95;1.10;;;16.30;99.90;;;;;;5079584;28;20218;-80
2022/06/08 05:53:06;;;;;;;1.45;0.82;;;16.40;99.90;;;;;;5084880;28;20209;-80
2022/06/08 05:55:33;;;;;;;3.05;1.00;;;16.50;99.90;;;;;;5083531;28;20244;-79
2022/06/08 05:58:00;;;;;;;2.28;1.38;;;16.50;99.90;;;;;;5087162;28;20222;-80
2022/06/08 06:00:32;;;;;;;4.10;1.17;;;16.50;99.90;;;;;;5082743;28;20663;-82
2022/06/08 06:03:00;;;;;;;1.40;1.20;;;16.50;99.90;;;;;;5084304;28;20200;-80
2022/06/08 06:05:30;;;;;;;1.30;1.20;;;16.50;99.90;;;;;;5076683;28;20357;-80
2022/06/08 06:07:58;;;;;;;1.80;1.10;;;16.50;99.90;;;;;;5087792;28;20217;-81
2022/06/08 06:10:26;;;;;;;1.88;1.40;;;16.40;99.90;;;;;;5080059;28;20229;-80
2022/06/08 06:12:54;;;;;;;0.95;0.95;;;16.60;99.90;;;;;;5085498;28;20284;-80
2022/06/08 06:15:22;;;;;;;3.47;1.30;;;16.80;99.90;;;;;;5086552;28;20320;-80
2022/06/08 06:17:51;;;;;;;1.08;1.00;;;17.00;99.90;;;;;;5088415;28;20232;-81
2022/06/08 06:20:19;;;;;;;1.75;1.50;;;17.10;99.90;;;;;;5086331;28;20214;-80
2022/06/08 06:22:47;;;;;;;2.00;1.10;;;17.10;99.90;;;;;;5089091;28;20246;-80
2022/06/08 06:25:14;;;;;;;1.10;1.00;;;17.00;99.90;;;;;;5085983;28;20228;-79
2022/06/08 06:27:42;;;;;;;1.05;0.95;;;17.00;99.90;;;;;;5084285;28;20228;-78
2022/06/08 06:30:10;;;;;;;2.72;1.38;;;17.10;99.90;;;;;;5082493;28;20214;-79
2022/06/08 06:32:40;;;;;;;1.13;1.02;;;17.10;99.90;;;;;;5085745;28;20201;-80
2022/06/08 06:35:12;;;;;;;0.90;0.90;;;17.20;99.90;;;;;;5086158;28;20230;-82
2022/06/08 06:37:39;;;;;;;1.95;1.10;;;17.40;99.90;;;;;;5086942;28;20703;-79
2022/06/08 06:40:08;;;;;;;1.17;1.08;;;17.60;99.90;;;;;;5073401;28;20225;-78
2022/06/08 06:42:35;;;;;;;3.30;1.60;;;17.70;99.90;;;;;;5086445;28;20190;-80
2022/06/08 06:45:03;;;;;;;1.92;1.02;;;18.00;99.90;;;;;;5083768;28;20228;-80
2022/06/08 06:47:30;;;;;;;1.55;1.20;;;18.20;99.90;;;;;;5084985;28;20217;-84
2022/06/08 06:49:57;;;;;;;0.70;0.70;;;18.30;99.90;;;;;;5078064;28;20222;-78
2022/06/08 06:52:26;;;;;;;5.70;1.83;;;18.40;99.90;;;;;;5079842;28;20198;-80
2022/06/08 06:54:53;;;;;;;1.77;1.10;;;18.50;99.90;;;;;;5081434;28;20229;-79
2022/06/08 06:57:20;;;;;;;1.15;1.05;;;18.70;99.90;;;;;;5084308;28;20429;-77
2022/06/08 06:59:47;;;;;;;0.70;0.70;;;18.70;99.90;;;;;;5085387;28;20213;-79
2022/06/08 07:02:16;;;;;;;2.00;0.90;;;18.70;99.90;;;;;;5082198;28;20185;-79
2022/06/08 07:04:43;;;;;;;1.95;1.00;;;18.80;99.90;;;;;;5081553;28;20738;-79
2022/06/08 07:07:11;;;;;;;1.33;0.93;;;18.70;99.90;;;;;;5079045;28;20197;-77
2022/06/08 07:09:40;;;;;;;0.80;0.80;;;18.80;99.90;;;;;;5083456;28;20229;-77
2022/06/08 07:12:08;;;;;;;1.20;1.10;;;18.90;99.90;;;;;;5078545;28;20372;-79
2022/06/08 07:14:36;;;;;;;0.90;0.80;;;19.00;99.90;;;;;;5077947;28;20605;-78
2022/06/08 07:17:03;;;;;;;0.88;0.80;;;19.10;99.90;;;;;;5081253;28;20205;-79
2022/06/08 07:19:30;;;;;;;0.88;0.80;;;19.20;99.90;;;;;;5080676;28;20214;-77
2022/06/08 07:21:58;;;;;;;1.10;1.00;;;19.20;99.90;;;;;;5106527;22;20627;-78
2022/06/08 07:24:30;;;;;;;1.63;0.85;;;19.20;99.90;;;;;;5095566;28;20561;-78
2022/06/08 07:26:59;;;;;;;1.52;0.75;;;19.10;99.90;;;;;;5099750;28;20197;-78
2022/06/08 07:29:26;;;;;;;1.23;1.13;;;19.20;99.90;;;;;;5100966;28;20229;-79
2022/06/08 07:31:53;;;;;;;0.88;0.88;;;19.30;99.90;;;;;;5105616;28;20213;-79
2022/06/08 07:34:20;;;;;;;1.73;0.90;;;19.40;99.90;;;;;;5098985;28;21900;-78
2022/06/08 07:36:47;;;;;;;1.70;0.90;;;19.60;99.90;;;;;;5105541;28;20200;-80
2022/06/08 07:39:15;;;;;;;1.50;0.80;;;19.70;99.90;;;;;;5098394;28;20624;-79
2022/06/08 07:41:43;;;;;;;4.38;1.02;;;19.60;99.90;;;;;;5102500;28;20217;-80
2022/06/08 07:44:12;;;;;;;3.88;1.00;;;19.80;99.90;;;;;;5099046;28;20644;-80
2022/06/08 07:46:39;;;;;;;2.00;0.88;;;19.80;99.90;;;;;;5097622;28;20193;-77
2022/06/08 07:51:53;;;;;;;0.85;0.85;;;20.20;99.90;;;;;;5099474;28;20725;-77
2022/06/08 07:54:23;;;;;;;1.13;1.00;;;20.70;99.90;;;;;;5101040;28;20721;-79
2022/06/08 07:56:51;;;;;;;1.75;1.10;;;20.70;99.90;;;;;;5100176;28;20229;-79
2022/06/08 07:59:21;;;;;;;1.85;0.90;;;20.70;99.90;;;;;;5097461;28;20603;-80
2022/06/08 08:01:48;;;;;;;1.25;0.80;;;20.70;99.90;;;;;;5105626;28;20269;-79
2022/06/08 08:04:15;;;;;;;0.80;0.80;;;20.70;99.90;;;;;;5102915;28;20234;-79
2022/06/08 08:06:43;;;;;;;1.00;1.00;;;20.70;99.90;;;;;;5102919;28;20211;-78
2022/06/08 08:09:17;;;;;;;1.10;0.90;;;20.90;99.90;;;;;;5100497;28;20217;-79
2022/06/08 08:11:44;;;;;;;1.98;0.90;;;20.80;99.90;;;;;;5096883;28;20250;-79
2022/06/08 08:14:12;;;;;;;2.38;1.17;;;20.90;99.90;;;;;;5104601;28;21310;-79
2022/06/08 08:16:42;;;;;;;1.52;0.93;;;21.00;99.90;;;;;;5102899;28;20196;-79
2022/06/08 08:19:11;;;;;;;1.33;1.00;;;21.00;99.90;;;;;;5098580;28;20193;-78
2022/06/08 08:21:38;;;;;;;1.65;1.00;;;20.90;99.90;;;;;;5094733;28;20824;-78
2022/06/08 08:24:06;;;;;;;3.28;0.82;;;20.90;99.90;;;;;;5096719;28;20619;-78
2022/06/08 08:26:34;;;;;;;0.85;0.70;;;21.00;99.90;;;;;;5097261;28;20201;-80
2022/06/08 08:29:01;;;;;;;2.50;0.98;;;21.10;99.90;;;;;;5096494;28;20193;-79
2022/06/08 08:31:28;;;;;;;1.52;1.02;;;21.30;99.90;;;;;;5099019;28;20407;-79
2022/06/08 08:33:56;;;;;;;1.30;0.80;;;21.60;99.90;;;;;;5099167;28;20663;-77
2022/06/08 08:36:24;;;;;;;0.98;0.98;;;21.70;99.90;;;;;;5100423;28;20194;-79
2022/06/08 08:38:51;;;;;;;0.80;0.80;;;21.70;99.90;;;;;;5093107;28;20202;-79
2022/06/08 08:44:07;;;;;;;1.20;0.82;;;22.00;99.90;;;;;;5097338;28;20309;-79
2022/06/08 08:46:43;;;;;;;1.58;0.90;;;22.20;99.90;;;;;;5099262;28;20197;-78
2022/06/08 08:49:19;;;;;;;0.70;0.70;;;22.20;99.90;;;;;;5097776;28;20194;-77
2022/06/08 08:51:53;;;;;;;0.80;0.80;;;22.30;99.90;;;;;;5095884;28;20279;-77
2022/06/08 08:54:26;;;;;;;2.33;1.20;;;22.30;99.90;;;;;;5100782;28;20216;-78
2022/06/08 08:57:00;;;;;;;1.15;1.00;;;22.30;99.90;;;;;;5101653;28;20193;-79
2022/06/08 08:59:34;;;;;;;2.08;1.13;;;22.40;99.90;;;;;;5095867;28;20216;-79
2022/06/08 09:03:14;;;;;;;1.25;0.90;;;22.50;99.90;;;;;;5098429;28;20757;-79
2022/06/08 09:05:24;;;;;;;3.70;1.00;;;22.60;99.90;;;;;;5101701;28;20217;-79
2022/06/08 09:07:58;;;;;;;2.67;1.20;;;22.60;99.90;;;;;;5101977;28;20690;-78
2022/06/08 09:10:28;;;;;;;1.63;0.82;;;22.40;99.90;;;;;;5101179;28;20782;-80
2022/06/08 09:12:58;;;;;;;0.88;0.82;;;22.50;99.90;;;;;;5099159;28;20217;-78
2022/06/08 09:15:45;;;;;;;0.80;0.80;;;22.60;99.90;;;;;;5097691;28;20702;-79
2022/06/08 09:18:39;;;;;;;3.50;0.77;;;22.60;99.90;;;;;;5103087;28;20193;-78
2022/06/08 09:21:29;;;;;;;1.58;0.70;;;22.60;99.90;;;;;;5082941;28;20232;-79
2022/06/08 09:23:59;;;;;;;0.60;0.60;;;22.50;99.90;;;;;;5100254;28;20207;-80
2022/06/08 09:26:32;;;;;;;0.90;0.90;;;22.60;99.90;;;;;;5106612;28;20216;-80
2022/06/08 09:29:00;;;;;;;0.70;0.70;;;22.70;99.90;;;;;;5101746;28;20189;-78
2022/06/08 09:31:35;;;;;;;0.75;0.75;;;22.80;99.90;;;;;;5101046;28;20225;-79
2022/06/08 09:34:18;;;;;;;1.73;0.70;;;22.90;99.90;;;;;;5103178;28;20604;-79
2022/06/08 09:37:03;;;;;;;3.30;0.80;;;23.10;99.90;;;;;;5104446;28;20275;-78
2022/06/08 09:39:30;;;;;;;0.70;0.60;;;23.10;99.90;;;;;;5106463;28;20189;-79
2022/06/08 09:42:00;;;;;;;1.00;0.85;;;23.10;99.90;;;;;;5104715;28;20267;-80
2022/06/08 09:44:29;;;;;;;1.02;1.00;;;23.20;99.90;;;;;;5096693;28;20189;-79
2022/06/08 09:53:09;;;;;;;0.60;0.60;;;23.60;99.90;;;;;;5069099;28;20224;-80
2022/06/08 09:55:53;;;;;;;1.05;0.70;;;23.60;99.90;;;;;;5106961;28;20287;-80
2022/06/08 09:58:38;;;;;;;1.00;0.73;;;23.80;99.90;;;;;;5107218;28;20386;-79
2022/06/08 10:01:14;;;;;;;1.10;0.70;;;24.00;99.90;;;;;;5104039;28;20213;-79
2022/06/08 10:03:58;;;;;;;0.77;0.77;;;24.20;99.90;;;;;;5102936;28;20200;-79
2022/06/08 10:06:30;;;;;;;0.70;0.60;;;24.40;99.90;;;;;;5097534;28;20303;-79
2022/06/08 10:09:11;;;;;;;0.77;0.77;;;24.50;99.90;;;;;;5099337;28;20702;-78
2022/06/08 10:11:46;;;;;;;0.70;0.70;;;24.50;99.90;;;;;;5093137;28;20217;-78
2022/06/08 10:14:21;;;;;;;1.63;0.70;;;24.50;99.90;;;;;;5093453;28;20196;-76
2022/06/08 10:16:55;;;;;;;0.60;0.60;;;24.60;99.90;;;;;;5096649;28;20255;-77
2022/06/08 10:19:29;;;;;;;1.13;0.90;;;24.50;99.90;;;;;;5096519;28;20204;-78
2022/06/08 10:21:59;;;;;;;2.00;0.73;;;24.50;99.90;;;;;;5098988;28;20611;-77
2022/06/08 10:24:36;;;;;;;0.90;0.77;;;24.50;99.90;;;;;;5100122;28;20420;-77
2022/06/08 10:27:11;;;;;;;0.77;0.60;;;24.70;99.90;;;;;;5097081;28;20748;-76
2022/06/08 10:31:51;;;;;;;1.38;1.08;;;24.60;99.90;;;;;;5060909;28;20315;-76
2022/06/08 10:34:21;;;;;;;5.88;2.53;;;24.70;99.90;;;;;;5033960;28;20203;-76
2022/06/08 10:36:52;;;;;;;8.60;3.75;;;25.10;99.90;;;;;;5033048;28;20220;-76
2022/06/08 10:39:20;;;;;;;2.78;1.60;;;25.20;99.90;;;;;;5014256;28;20227;-75
2022/06/08 10:44:59;;;;;;;1.95;1.00;;;25.30;99.90;;;;;;5018011;28;20218;-77
2022/06/08 10:47:30;;;;;;;1.23;0.93;;;25.50;99.90;;;;;;5008671;28;20495;-77
2022/06/08 10:50:17;;;;;;;1.25;0.73;;;25.50;99.90;;;;;;5010116;28;20205;-76
2022/06/08 10:52:46;;;;;;;0.70;0.70;;;25.50;99.90;;;;;;5014685;28;20392;-77
2022/06/08 10:55:47;;;;;;;0.75;0.75;;;25.50;99.90;;;;;;5014031;28;20191;-76
2022/06/08 10:58:17;;;;;;;0.63;0.63;;;25.50;99.90;;;;;;5013714;28;20238;-76
2022/06/08 11:01:02;;;;;;;1.60;0.90;;;25.30;99.90;;;;;;5015612;28;20195;-76
2022/06/08 11:03:53;;;;;;;0.47;0.47;;;25.30;99.90;;;;;;5013006;28;20218;-77
2022/06/08 11:06:58;;;;;;;0.68;0.60;;;25.30;99.90;;;;;;5014680;28;20195;-78
2022/06/08 11:09:49;;;;;;;0.50;0.50;;;25.40;99.90;;;;;;4948355;28;20740;-76
2022/06/08 11:12:42;;;;;;;0.50;0.43;;;25.80;99.90;;;;;;5017715;28;20219;-77
2022/06/08 11:15:21;;;;;;;2.25;0.60;;;25.80;99.90;;;;;;5029250;28;20196;-77
2022/06/08 11:17:58;;;;;;;0.60;0.60;;;26.10;99.90;;;;;;5025296;28;20222;-76
2022/06/08 11:20:32;;;;;;;0.50;0.50;;;26.00;99.90;;;;;;5019750;28;20193;-77
2022/06/08 11:23:04;;;;;;;1.85;0.70;;;26.00;99.90;;;;;;5023629;28;20274;-77
2022/06/08 11:25:34;;;;;;;1.08;0.68;;;25.80;99.90;;;;;;5020184;28;20203;-77
2022/06/08 11:28:32;;;;;;;0.52;0.52;;;25.70;99.90;;;;;;5025643;28;20228;-76
2022/06/08 11:31:01;;;;;;;1.95;0.63;;;25.70;99.90;;;;;;5022055;28;20218;-76
2022/06/08 11:33:49;;;;;;;1.65;0.65;;;25.60;99.90;;;;;;5029301;28;20620;-77
2022/06/08 11:36:37;;;;;;;0.70;0.70;;;25.70;99.90;;;;;;5032016;28;20195;-75
2022/06/08 11:39:17;;;;;;;0.50;0.50;;;25.80;99.90;;;;;;5025788;28;20255;-76
2022/06/08 11:41:58;;;;;;;0.70;0.70;;;25.70;99.90;;;;;;5017145;28;20251;-77
2022/06/08 11:44:32;;;;;;;0.60;0.60;;;25.50;99.90;;;;;;5011913;28;20196;-77
2022/06/08 11:47:12;;;;;;;1.15;0.60;;;25.50;99.90;;;;;;5010916;28;20227;-77
2022/06/08 11:49:43;;;;;;;1.85;0.50;;;25.80;99.90;;;;;;5004707;28;20200;-77
2022/06/08 11:52:29;;;;;;;0.80;0.70;;;26.00;99.90;;;;;;5002592;28;20240;-77
2022/06/08 11:55:01;;;;;;;0.63;0.60;;;26.20;99.90;;;;;;5008918;28;20263;-77
2022/06/08 11:57:29;;;;;;;0.68;0.60;;;26.30;99.90;;;;;;5008641;28;20228;-77
2022/06/08 11:59:58;;;;;;;0.60;0.60;;;26.10;99.90;;;;;;5010086;28;20208;-77
2022/06/08 12:02:33;;;;;;;0.57;0.57;;;26.10;99.90;;;;;;5007750;28;20275;-78
2022/06/08 12:05:00;;;;;;;0.52;0.45;;;26.20;99.90;;;;;;5007679;28;20197;-76
2022/06/08 12:07:50;;;;;;;0.40;0.40;;;26.40;99.90;;;;;;5003325;28;20230;-75
2022/06/08 12:10:20;;;;;;;0.60;0.50;;;26.80;99.90;;;;;;5010771;28;20495;-76
2022/06/08 12:12:48;;;;;;;0.38;0.38;;;27.10;99.90;;;;;;5004191;28;20261;-75
2022/06/08 12:15:38;;;;;;;4.38;0.60;;;27.20;99.90;;;;;;5004610;28;20196;-74
2022/06/08 12:18:30;;;;;;;0.60;0.40;;;27.40;99.90;;;;;;5012917;28;20227;-74
2022/06/08 12:21:24;;;;;;;0.63;0.60;;;27.40;99.90;;;;;;5004082;28;20236;-75
2022/06/08 12:24:20;;;;;;;0.98;0.63;;;27.30;99.90;;;;;;5005579;28;20536;-75
2022/06/08 12:26:59;;;;;;;1.48;0.50;;;27.20;99.90;;;;;;4997575;28;20208;-74
2022/06/08 12:29:32;;;;;;;0.60;0.52;;;27.10;99.90;;;;;;5001682;28;20649;-75
2022/06/08 12:32:02;;;;;;;0.65;0.52;;;27.20;99.90;;;;;;5002375;28;20252;-73
2022/06/08 12:34:36;;;;;;;0.50;0.50;;;27.30;99.90;;;;;;5003956;28;20257;-74
2022/06/08 12:37:23;;;;;;;0.63;0.63;;;27.50;99.90;;;;;;5010255;28;20196;-74
2022/06/08 12:39:51;;;;;;;2.47;0.63;;;27.50;99.90;;;;;;5003003;28;20271;-73
2022/06/08 12:42:27;;;;;;;1.75;0.60;;;27.40;99.90;;;;;;5003472;28;20531;-75
2022/06/08 12:44:56;;;;;;;0.93;0.50;;;27.50;99.90;;;;;;5003726;28;20232;-75
2022/06/08 12:47:26;;;;;;;0.50;0.50;;;27.50;99.90;;;;;;5003435;28;20208;-75
2022/06/08 12:49:59;;;;;;;0.93;0.50;;;27.30;99.90;;;;;;5002225;28;20220;-75
2022/06/08 12:52:28;;;;;;;3.00;0.68;;;27.30;99.90;;;;;;5000213;28;20563;-75
2022/06/08 12:54:57;;;;;;;2.67;0.70;;;27.30;99.90;;;;;;5004033;28;20239;-75
2022/06/08 12:57:28;;;;;;;1.92;0.57;;;27.20;99.90;;;;;;5005595;28;20579;-75
2022/06/08 12:59:59;;;;;;;1.15;0.50;;;26.90;99.90;;;;;;5015346;28;20278;-76
2022/06/08 13:02:29;;;;;;;0.63;0.50;;;26.60;99.90;;;;;;5024028;28;20215;-76
2022/06/08 13:04:57;;;;;;;1.20;0.70;;;26.10;99.90;;;;;;5017395;28;20255;-75
2022/06/08 13:07:27;;;;;;;0.60;0.55;;;25.80;99.90;;;;;;5021918;28;20203;-75
2022/06/08 13:09:55;;;;;;;1.13;0.60;;;25.80;99.90;;;;;;5004954;28;20228;-75
2022/06/08 13:12:25;;;;;;;0.55;0.55;;;26.20;99.90;;;;;;5003353;28;20588;-75
2022/06/08 13:14:52;;;;;;;1.85;0.70;;;26.30;99.90;;;;;;5014637;28;20588;-75
2022/06/08 13:17:20;;;;;;;0.63;0.50;;;26.40;99.90;;;;;;5024270;28;20203;-76
2022/06/08 13:19:47;;;;;;;0.73;0.60;;;26.50;99.90;;;;;;5008668;28;20239;-76
2022/06/08 13:22:14;;;;;;;2.00;0.60;;;26.40;99.90;;;;;;5018329;23;20259;-77
2022/06/08 13:24:42;;;;;;;1.08;0.95;;;26.40;99.90;;;;;;4954129;28;20236;-77
2022/06/08 13:27:15;;;;;;;0.57;0.57;;;26.40;99.90;;;;;;4959770;28;20200;-78
2022/06/08 13:29:42;;;;;;;0.98;0.80;;;26.40;99.90;;;;;;4958940;28;20217;-77
2022/06/08 13:32:15;;;;;;;1.25;0.70;;;26.50;99.90;;;;;;4958029;28;20236;-77
2022/06/08 13:34:42;;;;;;;0.90;0.60;;;26.60;99.90;;;;;;4972460;28;20249;-77
2022/06/08 13:37:23;;;;;;;0.50;0.50;;;26.60;99.90;;;;;;4980679;28;20260;-75
2022/06/08 13:39:50;;;;;;;1.60;0.70;;;26.60;99.90;;;;;;4977813;28;20318;-78
2022/06/08 13:42:19;;;;;;;1.80;0.60;;;26.50;99.90;;;;;;4981634;28;20209;-78
2022/06/08 13:44:48;;;;;;;0.68;0.60;;;26.40;99.90;;;;;;4981114;28;20233;-78
2022/06/08 13:47:20;;;;;;;0.70;0.70;;;26.30;99.90;;;;;;4981153;28;20554;-78
2022/06/08 13:49:52;;;;;;;1.08;0.60;;;26.30;99.90;;;;;;4979478;28;20222;-75
2022/06/08 13:52:24;;;;;;;2.15;0.75;;;26.30;99.90;;;;;;4979413;28;20221;-78
2022/06/08 13:54:53;;;;;;;1.33;0.55;;;26.20;99.90;;;;;;4980392;28;20224;-77
2022/06/08 13:57:25;;;;;;;3.38;0.77;;;26.00;99.90;;;;;;4981851;28;20193;-76
2022/06/08 13:59:52;;;;;;;0.93;0.57;;;25.70;99.90;;;;;;4984129;28;20315;-78
2022/06/08 14:02:23;;;;;;;3.00;0.90;;;25.80;99.90;;;;;;4979576;28;20248;-76
2022/06/08 14:04:53;;;;;;;0.75;0.70;;;25.80;99.90;;;;;;4975565;28;20224;-76
2022/06/08 14:13:09;;;;;;;2.33;0.85;;;25.80;99.90;;;;;;4977155;28;20265;-77
2022/06/08 14:15:36;;;;;;;1.30;0.77;;;25.80;99.90;;;;;;4975245;28;20229;-78
2022/06/08 14:18:03;;;;;;;1.73;0.90;;;26.10;99.90;;;;;;4982085;28;20288;-75
2022/06/08 14:20:34;;;;;;;0.98;0.90;;;26.40;99.90;;;;;;4978143;28;20617;-78
2022/06/08 14:23:03;;;;;;;1.83;0.68;;;26.60;99.90;;;;;;4979824;28;20228;-77
2022/06/08 14:25:31;;;;;;;0.70;0.70;;;26.50;99.90;;;;;;4980322;28;20896;-77
2022/06/08 14:27:58;;;;;;;0.70;0.70;;;26.50;99.90;;;;;;4979074;28;20193;-76
2022/06/08 14:30:30;;;;;;;1.05;0.90;;;26.40;99.90;;;;;;4978896;28;20308;-76
2022/06/08 14:32:59;;;;;;;0.93;0.70;;;26.20;99.90;;;;;;4977922;28;20220;-76
2022/06/08 14:35:29;;;;;;;1.55;0.80;;;25.90;99.90;;;;;;4981019;28;20228;-77
2022/06/08 14:37:57;;;;;;;1.02;0.68;;;26.00;99.90;;;;;;4979049;28;20288;-77
2022/06/08 14:40:26;;;;;;;0.70;0.70;;;26.00;99.90;;;;;;4976451;28;20221;-77